<?xml version="1.0" encoding="UTF-8" standalone="no" ?>
<gpx xmlns="http://www.topografix.com/GPX/1/1" xmlns:xsi="http://www.w3.org/2001/XMLSchema-instance" xsi:schemaLocation="http://www.topografix.com/GPX/1/1 http://www.topografix.com/GPX/1/1/gpx.xsd" version="1.1" creator="VisuGPX - https://www.visugpx.com">
  <metadata>
    <name>Bergerac (départ) - Maurens </name>
    <desc><![CDATA[Le premier relais se fait à Maurens.]]></desc>
  </metadata>
  <trk>
    <name><![CDATA[Maps3D_TR-2013-06-04 am11-02depart P]]></name>
    <trkseg>
      <trkpt lat="44.87052" lon="0.4939">
        <ele>38.122681</ele>
        <time>2013-06-04T11:03:26Z</time>
      </trkpt>
      <trkpt lat="44.87069" lon="0.49401">
        <ele>38.696411</ele>
        <time>2013-06-04T11:03:31Z</time>
      </trkpt>
      <trkpt lat="44.87084" lon="0.49411">
        <ele>39.207394</ele>
        <time>2013-06-04T11:03:37Z</time>
      </trkpt>
      <trkpt lat="44.87086" lon="0.49424">
        <ele>39.232418</ele>
        <time>2013-06-04T11:03:42Z</time>
      </trkpt>
      <trkpt lat="44.87073" lon="0.49449">
        <ele>38.538921</ele>
        <time>2013-06-04T11:03:48Z</time>
      </trkpt>
      <trkpt lat="44.87075" lon="0.49476">
        <ele>38.674698</ele>
        <time>2013-06-04T11:03:54Z</time>
      </trkpt>
      <trkpt lat="44.87084" lon="0.49504">
        <ele>38.908104</ele>
        <time>2013-06-04T11:03:59Z</time>
      </trkpt>
      <trkpt lat="44.87087" lon="0.49538">
        <ele>38.230328</ele>
        <time>2013-06-04T11:04:04Z</time>
      </trkpt>
      <trkpt lat="44.87091" lon="0.49567">
        <ele>37.695858</ele>
        <time>2013-06-04T11:04:09Z</time>
      </trkpt>
      <trkpt lat="44.87094" lon="0.49594">
        <ele>37.269165</ele>
        <time>2013-06-04T11:04:15Z</time>
      </trkpt>
      <trkpt lat="44.87094" lon="0.49624">
        <ele>36.891235</ele>
        <time>2013-06-04T11:04:21Z</time>
      </trkpt>
      <trkpt lat="44.87089" lon="0.49653">
        <ele>36.372498</ele>
        <time>2013-06-04T11:04:27Z</time>
      </trkpt>
      <trkpt lat="44.87078" lon="0.4968">
        <ele>36.288303</ele>
        <time>2013-06-04T11:04:33Z</time>
      </trkpt>
      <trkpt lat="44.87072" lon="0.497">
        <ele>36.61274</ele>
        <time>2013-06-04T11:04:38Z</time>
      </trkpt>
      <trkpt lat="44.8707" lon="0.49711">
        <ele>36.768509</ele>
        <time>2013-06-04T11:04:43Z</time>
      </trkpt>
      <trkpt lat="44.87066" lon="0.4973">
        <ele>37.009148</ele>
        <time>2013-06-04T11:04:49Z</time>
      </trkpt>
      <trkpt lat="44.87063" lon="0.49757">
        <ele>37.329285</ele>
        <time>2013-06-04T11:04:54Z</time>
      </trkpt>
      <trkpt lat="44.87078" lon="0.49782">
        <ele>37.441284</ele>
        <time>2013-06-04T11:05:00Z</time>
      </trkpt>
      <trkpt lat="44.87101" lon="0.49796">
        <ele>37.766785</ele>
        <time>2013-06-04T11:05:06Z</time>
      </trkpt>
      <trkpt lat="44.87108" lon="0.49822">
        <ele>38.155518</ele>
        <time>2013-06-04T11:05:11Z</time>
      </trkpt>
      <trkpt lat="44.87111" lon="0.49847">
        <ele>38.337036</ele>
        <time>2013-06-04T11:05:17Z</time>
      </trkpt>
      <trkpt lat="44.87136" lon="0.49852">
        <ele>38.62854</ele>
        <time>2013-06-04T11:05:23Z</time>
      </trkpt>
      <trkpt lat="44.87164" lon="0.49837">
        <ele>38.961426</ele>
        <time>2013-06-04T11:05:29Z</time>
      </trkpt>
      <trkpt lat="44.87184" lon="0.49815">
        <ele>38.65929</ele>
        <time>2013-06-04T11:05:34Z</time>
      </trkpt>
      <trkpt lat="44.87198" lon="0.49796">
        <ele>38.513153</ele>
        <time>2013-06-04T11:05:40Z</time>
      </trkpt>
      <trkpt lat="44.8722" lon="0.49787">
        <ele>38.516167</ele>
        <time>2013-06-04T11:05:46Z</time>
      </trkpt>
      <trkpt lat="44.87245" lon="0.49775">
        <ele>38.6735</ele>
        <time>2013-06-04T11:05:52Z</time>
      </trkpt>
      <trkpt lat="44.87269" lon="0.49769">
        <ele>39.38575</ele>
        <time>2013-06-04T11:05:58Z</time>
      </trkpt>
      <trkpt lat="44.87285" lon="0.4977">
        <ele>39.918472</ele>
        <time>2013-06-04T11:06:04Z</time>
      </trkpt>
      <trkpt lat="44.87283" lon="0.49792">
        <ele>39.488708</ele>
        <time>2013-06-04T11:06:09Z</time>
      </trkpt>
      <trkpt lat="44.87282" lon="0.49816">
        <ele>39.066307</ele>
        <time>2013-06-04T11:06:14Z</time>
      </trkpt>
      <trkpt lat="44.87287" lon="0.49846">
        <ele>39.120232</ele>
        <time>2013-06-04T11:06:20Z</time>
      </trkpt>
      <trkpt lat="44.87306" lon="0.49878">
        <ele>40.044895</ele>
        <time>2013-06-04T11:06:25Z</time>
      </trkpt>
      <trkpt lat="44.87328" lon="0.49896">
        <ele>40.672459</ele>
        <time>2013-06-04T11:06:30Z</time>
      </trkpt>
      <trkpt lat="44.87353" lon="0.49903">
        <ele>42.588699</ele>
        <time>2013-06-04T11:06:36Z</time>
      </trkpt>
      <trkpt lat="44.8737" lon="0.4992">
        <ele>44.051723</ele>
        <time>2013-06-04T11:06:41Z</time>
      </trkpt>
      <trkpt lat="44.87385" lon="0.4994">
        <ele>44.808449</ele>
        <time>2013-06-04T11:06:47Z</time>
      </trkpt>
      <trkpt lat="44.87392" lon="0.49972">
        <ele>44.508526</ele>
        <time>2013-06-04T11:06:53Z</time>
      </trkpt>
      <trkpt lat="44.87394" lon="0.50013">
        <ele>43.342201</ele>
        <time>2013-06-04T11:06:58Z</time>
      </trkpt>
      <trkpt lat="44.87408" lon="0.50036">
        <ele>42.905785</ele>
        <time>2013-06-04T11:07:03Z</time>
      </trkpt>
      <trkpt lat="44.87426" lon="0.50059">
        <ele>43.238159</ele>
        <time>2013-06-04T11:07:09Z</time>
      </trkpt>
      <trkpt lat="44.87436" lon="0.50084">
        <ele>43.035126</ele>
        <time>2013-06-04T11:07:14Z</time>
      </trkpt>
      <trkpt lat="44.87436" lon="0.50111">
        <ele>42.634388</ele>
        <time>2013-06-04T11:07:19Z</time>
      </trkpt>
      <trkpt lat="44.87437" lon="0.50145">
        <ele>42.080494</ele>
        <time>2013-06-04T11:07:25Z</time>
      </trkpt>
      <trkpt lat="44.87458" lon="0.50166">
        <ele>43.437637</ele>
        <time>2013-06-04T11:07:30Z</time>
      </trkpt>
      <trkpt lat="44.87481" lon="0.50185">
        <ele>45.071491</ele>
        <time>2013-06-04T11:07:36Z</time>
      </trkpt>
      <trkpt lat="44.87486" lon="0.50217">
        <ele>44.772877</ele>
        <time>2013-06-04T11:07:41Z</time>
      </trkpt>
      <trkpt lat="44.87493" lon="0.5024">
        <ele>44.807152</ele>
        <time>2013-06-04T11:07:47Z</time>
      </trkpt>
      <trkpt lat="44.87509" lon="0.50272">
        <ele>44.485352</ele>
        <time>2013-06-04T11:07:53Z</time>
      </trkpt>
      <trkpt lat="44.87516" lon="0.50311">
        <ele>42.993774</ele>
        <time>2013-06-04T11:07:59Z</time>
      </trkpt>
      <trkpt lat="44.87521" lon="0.50352">
        <ele>42.009277</ele>
        <time>2013-06-04T11:08:05Z</time>
      </trkpt>
      <trkpt lat="44.87533" lon="0.50385">
        <ele>42.384705</ele>
        <time>2013-06-04T11:08:11Z</time>
      </trkpt>
      <trkpt lat="44.87543" lon="0.50407">
        <ele>42.673889</ele>
        <time>2013-06-04T11:08:16Z</time>
      </trkpt>
      <trkpt lat="44.87549" lon="0.50437">
        <ele>42.879906</ele>
        <time>2013-06-04T11:08:22Z</time>
      </trkpt>
      <trkpt lat="44.87543" lon="0.50465">
        <ele>42.563843</ele>
        <time>2013-06-04T11:08:27Z</time>
      </trkpt>
      <trkpt lat="44.87546" lon="0.50477">
        <ele>42.669193</ele>
        <time>2013-06-04T11:08:33Z</time>
      </trkpt>
      <trkpt lat="44.87562" lon="0.50472">
        <ele>43.394218</ele>
        <time>2013-06-04T11:08:39Z</time>
      </trkpt>
      <trkpt lat="44.87568" lon="0.50467">
        <ele>43.682564</ele>
        <time>2013-06-04T11:08:44Z</time>
      </trkpt>
      <trkpt lat="44.87576" lon="0.50491">
        <ele>43.825859</ele>
        <time>2013-06-04T11:08:49Z</time>
      </trkpt>
      <trkpt lat="44.87579" lon="0.50542">
        <ele>43.903069</ele>
        <time>2013-06-04T11:08:54Z</time>
      </trkpt>
      <trkpt lat="44.87587" lon="0.50582">
        <ele>44.093849</ele>
        <time>2013-06-04T11:08:59Z</time>
      </trkpt>
      <trkpt lat="44.87593" lon="0.50615">
        <ele>44.274891</ele>
        <time>2013-06-04T11:09:05Z</time>
      </trkpt>
      <trkpt lat="44.87603" lon="0.50655">
        <ele>44.674088</ele>
        <time>2013-06-04T11:09:11Z</time>
      </trkpt>
      <trkpt lat="44.8761" lon="0.50693">
        <ele>44.966431</ele>
        <time>2013-06-04T11:09:17Z</time>
      </trkpt>
      <trkpt lat="44.87619" lon="0.50733">
        <ele>45.289062</ele>
        <time>2013-06-04T11:09:23Z</time>
      </trkpt>
      <trkpt lat="44.87626" lon="0.50769">
        <ele>45.416569</ele>
        <time>2013-06-04T11:09:28Z</time>
      </trkpt>
      <trkpt lat="44.87634" lon="0.50803">
        <ele>45.434166</ele>
        <time>2013-06-04T11:09:34Z</time>
      </trkpt>
      <trkpt lat="44.87649" lon="0.50817">
        <ele>45.721455</ele>
        <time>2013-06-04T11:09:39Z</time>
      </trkpt>
      <trkpt lat="44.87678" lon="0.5081">
        <ele>47.543983</ele>
        <time>2013-06-04T11:09:44Z</time>
      </trkpt>
      <trkpt lat="44.87708" lon="0.50807">
        <ele>50.93251</ele>
        <time>2013-06-04T11:09:50Z</time>
      </trkpt>
      <trkpt lat="44.87723" lon="0.50806">
        <ele>52.606316</ele>
        <time>2013-06-04T11:09:55Z</time>
      </trkpt>
      <trkpt lat="44.87739" lon="0.50802">
        <ele>54.40403</ele>
        <time>2013-06-04T11:10:00Z</time>
      </trkpt>
      <trkpt lat="44.87756" lon="0.50801">
        <ele>56.21516</ele>
        <time>2013-06-04T11:10:05Z</time>
      </trkpt>
      <trkpt lat="44.87767" lon="0.50801">
        <ele>57.32029</ele>
        <time>2013-06-04T11:10:10Z</time>
      </trkpt>
      <trkpt lat="44.87776" lon="0.50805">
        <ele>58.214134</ele>
        <time>2013-06-04T11:10:16Z</time>
      </trkpt>
      <trkpt lat="44.87785" lon="0.50804">
        <ele>59.105797</ele>
        <time>2013-06-04T11:10:21Z</time>
      </trkpt>
      <trkpt lat="44.87801" lon="0.50803">
        <ele>60.651825</ele>
        <time>2013-06-04T11:10:27Z</time>
      </trkpt>
      <trkpt lat="44.87808" lon="0.50809">
        <ele>61.58279</ele>
        <time>2013-06-04T11:10:32Z</time>
      </trkpt>
      <trkpt lat="44.87814" lon="0.5082">
        <ele>62.515411</ele>
        <time>2013-06-04T11:10:38Z</time>
      </trkpt>
      <trkpt lat="44.87822" lon="0.5083">
        <ele>63.704945</ele>
        <time>2013-06-04T11:10:43Z</time>
      </trkpt>
      <trkpt lat="44.87827" lon="0.50829">
        <ele>64.143524</ele>
        <time>2013-06-04T11:11:00Z</time>
      </trkpt>
      <trkpt lat="44.87832" lon="0.50829">
        <ele>64.661537</ele>
        <time>2013-06-04T11:11:24Z</time>
      </trkpt>
      <trkpt lat="44.87865" lon="0.50834">
        <ele>66.913971</ele>
        <time>2013-06-04T11:11:30Z</time>
      </trkpt>
      <trkpt lat="44.87887" lon="0.5084">
        <ele>68.059601</ele>
        <time>2013-06-04T11:11:36Z</time>
      </trkpt>
      <trkpt lat="44.87911" lon="0.50855">
        <ele>69.558212</ele>
        <time>2013-06-04T11:11:41Z</time>
      </trkpt>
      <trkpt lat="44.87929" lon="0.50862">
        <ele>70.656242</ele>
        <time>2013-06-04T11:11:46Z</time>
      </trkpt>
      <trkpt lat="44.87949" lon="0.50865">
        <ele>71.65657</ele>
        <time>2013-06-04T11:11:52Z</time>
      </trkpt>
      <trkpt lat="44.87978" lon="0.50872">
        <ele>72.9842</ele>
        <time>2013-06-04T11:11:58Z</time>
      </trkpt>
      <trkpt lat="44.88003" lon="0.50878">
        <ele>74.07003</ele>
        <time>2013-06-04T11:12:04Z</time>
      </trkpt>
      <trkpt lat="44.88021" lon="0.50886">
        <ele>74.988853</ele>
        <time>2013-06-04T11:12:10Z</time>
      </trkpt>
      <trkpt lat="44.88039" lon="0.50889">
        <ele>76.001053</ele>
        <time>2013-06-04T11:12:15Z</time>
      </trkpt>
      <trkpt lat="44.88059" lon="0.50898">
        <ele>77.211136</ele>
        <time>2013-06-04T11:12:21Z</time>
      </trkpt>
      <trkpt lat="44.88078" lon="0.5091">
        <ele>78.547752</ele>
        <time>2013-06-04T11:12:27Z</time>
      </trkpt>
      <trkpt lat="44.88097" lon="0.50919">
        <ele>79.365417</ele>
        <time>2013-06-04T11:12:33Z</time>
      </trkpt>
      <trkpt lat="44.88113" lon="0.50931">
        <ele>79.807808</ele>
        <time>2013-06-04T11:12:38Z</time>
      </trkpt>
      <trkpt lat="44.88129" lon="0.5095">
        <ele>80.017654</ele>
        <time>2013-06-04T11:12:44Z</time>
      </trkpt>
      <trkpt lat="44.88148" lon="0.50964">
        <ele>79.926735</ele>
        <time>2013-06-04T11:12:49Z</time>
      </trkpt>
      <trkpt lat="44.88178" lon="0.5098">
        <ele>79.488281</ele>
        <time>2013-06-04T11:12:55Z</time>
      </trkpt>
      <trkpt lat="44.88209" lon="0.50994">
        <ele>79.149658</ele>
        <time>2013-06-04T11:13:00Z</time>
      </trkpt>
      <trkpt lat="44.88237" lon="0.51023">
        <ele>79.108429</ele>
        <time>2013-06-04T11:13:05Z</time>
      </trkpt>
      <trkpt lat="44.88254" lon="0.51042">
        <ele>79.652214</ele>
        <time>2013-06-04T11:13:11Z</time>
      </trkpt>
      <trkpt lat="44.88269" lon="0.51062">
        <ele>80.545204</ele>
        <time>2013-06-04T11:13:16Z</time>
      </trkpt>
      <trkpt lat="44.88285" lon="0.51088">
        <ele>81.778687</ele>
        <time>2013-06-04T11:13:22Z</time>
      </trkpt>
      <trkpt lat="44.883" lon="0.51102">
        <ele>82.855591</ele>
        <time>2013-06-04T11:13:27Z</time>
      </trkpt>
      <trkpt lat="44.88318" lon="0.51111">
        <ele>83.943848</ele>
        <time>2013-06-04T11:13:32Z</time>
      </trkpt>
      <trkpt lat="44.88337" lon="0.51113">
        <ele>84.871628</ele>
        <time>2013-06-04T11:13:37Z</time>
      </trkpt>
      <trkpt lat="44.88351" lon="0.51114">
        <ele>85.652657</ele>
        <time>2013-06-04T11:13:42Z</time>
      </trkpt>
      <trkpt lat="44.88371" lon="0.51117">
        <ele>86.68364</ele>
        <time>2013-06-04T11:13:48Z</time>
      </trkpt>
      <trkpt lat="44.88388" lon="0.51119">
        <ele>87.591797</ele>
        <time>2013-06-04T11:13:54Z</time>
      </trkpt>
      <trkpt lat="44.88409" lon="0.51117">
        <ele>88.594986</ele>
        <time>2013-06-04T11:14:00Z</time>
      </trkpt>
      <trkpt lat="44.88423" lon="0.51104">
        <ele>89.558334</ele>
        <time>2013-06-04T11:14:05Z</time>
      </trkpt>
      <trkpt lat="44.8844" lon="0.51096">
        <ele>91.172318</ele>
        <time>2013-06-04T11:14:10Z</time>
      </trkpt>
      <trkpt lat="44.88457" lon="0.51086">
        <ele>92.863922</ele>
        <time>2013-06-04T11:14:16Z</time>
      </trkpt>
      <trkpt lat="44.88475" lon="0.51077">
        <ele>94.163132</ele>
        <time>2013-06-04T11:14:22Z</time>
      </trkpt>
      <trkpt lat="44.8849" lon="0.51071">
        <ele>95.205162</ele>
        <time>2013-06-04T11:14:27Z</time>
      </trkpt>
      <trkpt lat="44.88508" lon="0.51064">
        <ele>96.139465</ele>
        <time>2013-06-04T11:14:33Z</time>
      </trkpt>
      <trkpt lat="44.88522" lon="0.5106">
        <ele>96.703705</ele>
        <time>2013-06-04T11:14:38Z</time>
      </trkpt>
      <trkpt lat="44.88534" lon="0.51061">
        <ele>97.524323</ele>
        <time>2013-06-04T11:14:44Z</time>
      </trkpt>
      <trkpt lat="44.88549" lon="0.51064">
        <ele>98.649292</ele>
        <time>2013-06-04T11:14:50Z</time>
      </trkpt>
      <trkpt lat="44.88566" lon="0.51067">
        <ele>99.918655</ele>
        <time>2013-06-04T11:14:55Z</time>
      </trkpt>
      <trkpt lat="44.88583" lon="0.51067">
        <ele>101.026581</ele>
        <time>2013-06-04T11:15:01Z</time>
      </trkpt>
      <trkpt lat="44.88602" lon="0.51067">
        <ele>101.296875</ele>
        <time>2013-06-04T11:15:06Z</time>
      </trkpt>
      <trkpt lat="44.88623" lon="0.51073">
        <ele>101.926559</ele>
        <time>2013-06-04T11:15:12Z</time>
      </trkpt>
      <trkpt lat="44.88647" lon="0.51074">
        <ele>102.297478</ele>
        <time>2013-06-04T11:15:18Z</time>
      </trkpt>
      <trkpt lat="44.88671" lon="0.51074">
        <ele>102.639023</ele>
        <time>2013-06-04T11:15:24Z</time>
      </trkpt>
      <trkpt lat="44.88695" lon="0.51069">
        <ele>103.103851</ele>
        <time>2013-06-04T11:15:30Z</time>
      </trkpt>
      <trkpt lat="44.88719" lon="0.51064">
        <ele>103.61264</ele>
        <time>2013-06-04T11:15:36Z</time>
      </trkpt>
      <trkpt lat="44.88741" lon="0.51059">
        <ele>104.118187</ele>
        <time>2013-06-04T11:15:42Z</time>
      </trkpt>
      <trkpt lat="44.8876" lon="0.51059">
        <ele>105.116714</ele>
        <time>2013-06-04T11:15:47Z</time>
      </trkpt>
      <trkpt lat="44.88782" lon="0.5106">
        <ele>106.640045</ele>
        <time>2013-06-04T11:15:53Z</time>
      </trkpt>
      <trkpt lat="44.88799" lon="0.51056">
        <ele>107.663284</ele>
        <time>2013-06-04T11:15:59Z</time>
      </trkpt>
      <trkpt lat="44.88808" lon="0.51053">
        <ele>108.15329</ele>
        <time>2013-06-04T11:16:04Z</time>
      </trkpt>
      <trkpt lat="44.88806" lon="0.51046">
        <ele>107.839447</ele>
        <time>2013-06-04T11:16:11Z</time>
      </trkpt>
      <trkpt lat="44.88807" lon="0.51038">
        <ele>107.622009</ele>
        <time>2013-06-04T11:16:32Z</time>
      </trkpt>
      <trkpt lat="44.88808" lon="0.51014">
        <ele>106.914154</ele>
        <time>2013-06-04T11:16:38Z</time>
      </trkpt>
      <trkpt lat="44.88811" lon="0.50952">
        <ele>103.354172</ele>
        <time>2013-06-04T11:16:43Z</time>
      </trkpt>
      <trkpt lat="44.88798" lon="0.50885">
        <ele>98.591736</ele>
        <time>2013-06-04T11:16:49Z</time>
      </trkpt>
      <trkpt lat="44.88803" lon="0.50825">
        <ele>96.302734</ele>
        <time>2013-06-04T11:16:54Z</time>
      </trkpt>
      <trkpt lat="44.88832" lon="0.50782">
        <ele>97.95874</ele>
        <time>2013-06-04T11:16:59Z</time>
      </trkpt>
      <trkpt lat="44.88851" lon="0.50781">
        <ele>98.584549</ele>
        <time>2013-06-04T11:17:05Z</time>
      </trkpt>
      <trkpt lat="44.88872" lon="0.50779">
        <ele>99.250504</ele>
        <time>2013-06-04T11:17:10Z</time>
      </trkpt>
      <trkpt lat="44.88894" lon="0.5077">
        <ele>99.801529</ele>
        <time>2013-06-04T11:17:16Z</time>
      </trkpt>
      <trkpt lat="44.88911" lon="0.5076">
        <ele>100.08358</ele>
        <time>2013-06-04T11:17:21Z</time>
      </trkpt>
      <trkpt lat="44.8893" lon="0.50753">
        <ele>100.720078</ele>
        <time>2013-06-04T11:17:27Z</time>
      </trkpt>
      <trkpt lat="44.88948" lon="0.50746">
        <ele>101.595383</ele>
        <time>2013-06-04T11:17:33Z</time>
      </trkpt>
      <trkpt lat="44.88959" lon="0.5074">
        <ele>102.240326</ele>
        <time>2013-06-04T11:17:38Z</time>
      </trkpt>
      <trkpt lat="44.88962" lon="0.50732">
        <ele>102.511627</ele>
        <time>2013-06-04T11:18:09Z</time>
      </trkpt>
      <trkpt lat="44.88986" lon="0.50729">
        <ele>103.777069</ele>
        <time>2013-06-04T11:18:14Z</time>
      </trkpt>
      <trkpt lat="44.89012" lon="0.50712">
        <ele>105.347137</ele>
        <time>2013-06-04T11:18:20Z</time>
      </trkpt>
      <trkpt lat="44.89032" lon="0.50696">
        <ele>106.353981</ele>
        <time>2013-06-04T11:18:26Z</time>
      </trkpt>
      <trkpt lat="44.89052" lon="0.50682">
        <ele>107.118553</ele>
        <time>2013-06-04T11:18:32Z</time>
      </trkpt>
      <trkpt lat="44.89067" lon="0.50666">
        <ele>107.64222</ele>
        <time>2013-06-04T11:18:37Z</time>
      </trkpt>
      <trkpt lat="44.89081" lon="0.50638">
        <ele>108.951591</ele>
        <time>2013-06-04T11:18:43Z</time>
      </trkpt>
      <trkpt lat="44.89094" lon="0.50616">
        <ele>110.365143</ele>
        <time>2013-06-04T11:18:49Z</time>
      </trkpt>
      <trkpt lat="44.89108" lon="0.50601">
        <ele>111.590965</ele>
        <time>2013-06-04T11:18:55Z</time>
      </trkpt>
      <trkpt lat="44.89121" lon="0.50592">
        <ele>112.543518</ele>
        <time>2013-06-04T11:19:01Z</time>
      </trkpt>
      <trkpt lat="44.89134" lon="0.50567">
        <ele>114.573448</ele>
        <time>2013-06-04T11:19:06Z</time>
      </trkpt>
      <trkpt lat="44.89137" lon="0.50543">
        <ele>116.356804</ele>
        <time>2013-06-04T11:19:12Z</time>
      </trkpt>
      <trkpt lat="44.89138" lon="0.5052">
        <ele>117.932777</ele>
        <time>2013-06-04T11:19:17Z</time>
      </trkpt>
      <trkpt lat="44.89136" lon="0.50491">
        <ele>119.685547</ele>
        <time>2013-06-04T11:19:23Z</time>
      </trkpt>
      <trkpt lat="44.89139" lon="0.50471">
        <ele>120.723389</ele>
        <time>2013-06-04T11:19:28Z</time>
      </trkpt>
      <trkpt lat="44.89149" lon="0.50459">
        <ele>121.535889</ele>
        <time>2013-06-04T11:19:34Z</time>
      </trkpt>
      <trkpt lat="44.89166" lon="0.50464">
        <ele>121.740479</ele>
        <time>2013-06-04T11:19:40Z</time>
      </trkpt>
      <trkpt lat="44.89188" lon="0.50471">
        <ele>121.906746</ele>
        <time>2013-06-04T11:19:46Z</time>
      </trkpt>
      <trkpt lat="44.89212" lon="0.50471">
        <ele>122.460968</ele>
        <time>2013-06-04T11:19:52Z</time>
      </trkpt>
      <trkpt lat="44.89232" lon="0.50465">
        <ele>123.041901</ele>
        <time>2013-06-04T11:19:57Z</time>
      </trkpt>
      <trkpt lat="44.89253" lon="0.50452">
        <ele>123.668884</ele>
        <time>2013-06-04T11:20:03Z</time>
      </trkpt>
      <trkpt lat="44.89274" lon="0.50441">
        <ele>124.569946</ele>
        <time>2013-06-04T11:20:09Z</time>
      </trkpt>
      <trkpt lat="44.89296" lon="0.50439">
        <ele>125.391724</ele>
        <time>2013-06-04T11:20:15Z</time>
      </trkpt>
      <trkpt lat="44.89321" lon="0.50428">
        <ele>126.419373</ele>
        <time>2013-06-04T11:20:21Z</time>
      </trkpt>
      <trkpt lat="44.89347" lon="0.5042">
        <ele>126.63504</ele>
        <time>2013-06-04T11:20:27Z</time>
      </trkpt>
      <trkpt lat="44.89367" lon="0.5041">
        <ele>125.914429</ele>
        <time>2013-06-04T11:20:33Z</time>
      </trkpt>
      <trkpt lat="44.89376" lon="0.50425">
        <ele>125.833862</ele>
        <time>2013-06-04T11:20:38Z</time>
      </trkpt>
      <trkpt lat="44.89378" lon="0.5044">
        <ele>125.491501</ele>
        <time>2013-06-04T11:20:43Z</time>
      </trkpt>
      <trkpt lat="44.89377" lon="0.50465">
        <ele>125.090179</ele>
        <time>2013-06-04T11:20:49Z</time>
      </trkpt>
      <trkpt lat="44.89377" lon="0.50492">
        <ele>124.552032</ele>
        <time>2013-06-04T11:20:55Z</time>
      </trkpt>
      <trkpt lat="44.89369" lon="0.50517">
        <ele>123.798843</ele>
        <time>2013-06-04T11:21:01Z</time>
      </trkpt>
      <trkpt lat="44.89356" lon="0.50518">
        <ele>124.193787</ele>
        <time>2013-06-04T11:21:07Z</time>
      </trkpt>
      <trkpt lat="44.89359" lon="0.50522">
        <ele>123.807465</ele>
        <time>2013-06-04T11:23:29Z</time>
      </trkpt>
      <trkpt lat="44.89365" lon="0.50522">
        <ele>123.654892</ele>
        <time>2013-06-04T11:23:54Z</time>
      </trkpt>
      <trkpt lat="44.89385" lon="0.50524">
        <ele>122.895645</ele>
        <time>2013-06-04T11:24:00Z</time>
      </trkpt>
      <trkpt lat="44.8941" lon="0.5053">
        <ele>121.764183</ele>
        <time>2013-06-04T11:24:06Z</time>
      </trkpt>
      <trkpt lat="44.89433" lon="0.50529">
        <ele>122.06263</ele>
        <time>2013-06-04T11:24:11Z</time>
      </trkpt>
      <trkpt lat="44.89454" lon="0.50525">
        <ele>122.847977</ele>
        <time>2013-06-04T11:24:16Z</time>
      </trkpt>
      <trkpt lat="44.89477" lon="0.50522">
        <ele>123.595016</ele>
        <time>2013-06-04T11:24:22Z</time>
      </trkpt>
      <trkpt lat="44.89494" lon="0.50516">
        <ele>124.278442</ele>
        <time>2013-06-04T11:24:27Z</time>
      </trkpt>
      <trkpt lat="44.89512" lon="0.50511">
        <ele>125.063904</ele>
        <time>2013-06-04T11:24:33Z</time>
      </trkpt>
      <trkpt lat="44.89532" lon="0.50506">
        <ele>125.949059</ele>
        <time>2013-06-04T11:24:39Z</time>
      </trkpt>
      <trkpt lat="44.89548" lon="0.50497">
        <ele>126.691833</ele>
        <time>2013-06-04T11:24:45Z</time>
      </trkpt>
      <trkpt lat="44.89565" lon="0.50488">
        <ele>127.180542</ele>
        <time>2013-06-04T11:24:51Z</time>
      </trkpt>
      <trkpt lat="44.89582" lon="0.5048">
        <ele>127.718872</ele>
        <time>2013-06-04T11:24:57Z</time>
      </trkpt>
      <trkpt lat="44.89601" lon="0.5047">
        <ele>127.773178</ele>
        <time>2013-06-04T11:25:03Z</time>
      </trkpt>
      <trkpt lat="44.8961" lon="0.50467">
        <ele>127.798683</ele>
        <time>2013-06-04T11:25:09Z</time>
      </trkpt>
      <trkpt lat="44.89615" lon="0.5047">
        <ele>127.88871</ele>
        <time>2013-06-04T11:25:14Z</time>
      </trkpt>
      <trkpt lat="44.89626" lon="0.50493">
        <ele>128.386337</ele>
        <time>2013-06-04T11:25:20Z</time>
      </trkpt>
      <trkpt lat="44.89633" lon="0.50515">
        <ele>128.34758</ele>
        <time>2013-06-04T11:25:26Z</time>
      </trkpt>
      <trkpt lat="44.89637" lon="0.50528">
        <ele>128.181259</ele>
        <time>2013-06-04T11:25:33Z</time>
      </trkpt>
      <trkpt lat="44.89641" lon="0.50546">
        <ele>127.968353</ele>
        <time>2013-06-04T11:25:39Z</time>
      </trkpt>
      <trkpt lat="44.89645" lon="0.5055">
        <ele>127.978462</ele>
        <time>2013-06-04T11:25:56Z</time>
      </trkpt>
      <trkpt lat="44.89645" lon="0.50542">
        <ele>128.102448</ele>
        <time>2013-06-04T11:26:06Z</time>
      </trkpt>
      <trkpt lat="44.89636" lon="0.50525">
        <ele>128.222076</ele>
        <time>2013-06-04T11:26:12Z</time>
      </trkpt>
      <trkpt lat="44.89631" lon="0.5051">
        <ele>128.401794</ele>
        <time>2013-06-04T11:26:17Z</time>
      </trkpt>
      <trkpt lat="44.89623" lon="0.50488">
        <ele>128.270874</ele>
        <time>2013-06-04T11:26:23Z</time>
      </trkpt>
      <trkpt lat="44.89617" lon="0.50467">
        <ele>127.84742</ele>
        <time>2013-06-04T11:26:28Z</time>
      </trkpt>
      <trkpt lat="44.89608" lon="0.50449">
        <ele>127.49778</ele>
        <time>2013-06-04T11:26:34Z</time>
      </trkpt>
      <trkpt lat="44.89598" lon="0.50425">
        <ele>127.116035</ele>
        <time>2013-06-04T11:26:40Z</time>
      </trkpt>
      <trkpt lat="44.89587" lon="0.50404">
        <ele>126.843536</ele>
        <time>2013-06-04T11:26:46Z</time>
      </trkpt>
      <trkpt lat="44.89605" lon="0.50389">
        <ele>126.586426</ele>
        <time>2013-06-04T11:26:52Z</time>
      </trkpt>
      <trkpt lat="44.89628" lon="0.50383">
        <ele>126.379204</ele>
        <time>2013-06-04T11:26:58Z</time>
      </trkpt>
      <trkpt lat="44.89647" lon="0.50376">
        <ele>126.150589</ele>
        <time>2013-06-04T11:27:03Z</time>
      </trkpt>
      <trkpt lat="44.89672" lon="0.50369">
        <ele>125.862732</ele>
        <time>2013-06-04T11:27:09Z</time>
      </trkpt>
      <trkpt lat="44.8969" lon="0.50362">
        <ele>125.768188</ele>
        <time>2013-06-04T11:27:14Z</time>
      </trkpt>
      <trkpt lat="44.89701" lon="0.50361">
        <ele>125.806618</ele>
        <time>2013-06-04T11:27:20Z</time>
      </trkpt>
      <trkpt lat="44.89696" lon="0.50357">
        <ele>125.715691</ele>
        <time>2013-06-04T11:27:58Z</time>
      </trkpt>
      <trkpt lat="44.89699" lon="0.50352">
        <ele>125.659103</ele>
        <time>2013-06-04T11:28:07Z</time>
      </trkpt>
      <trkpt lat="44.89702" lon="0.50359">
        <ele>125.772163</ele>
        <time>2013-06-04T11:28:14Z</time>
      </trkpt>
      <trkpt lat="44.89706" lon="0.50361">
        <ele>125.82151</ele>
        <time>2013-06-04T11:28:24Z</time>
      </trkpt>
      <trkpt lat="44.89717" lon="0.50358">
        <ele>125.839493</ele>
        <time>2013-06-04T11:28:30Z</time>
      </trkpt>
      <trkpt lat="44.89725" lon="0.50353">
        <ele>125.842438</ele>
        <time>2013-06-04T11:28:36Z</time>
      </trkpt>
      <trkpt lat="44.89733" lon="0.50349">
        <ele>125.872406</ele>
        <time>2013-06-04T11:28:41Z</time>
      </trkpt>
      <trkpt lat="44.89743" lon="0.50343">
        <ele>125.934494</ele>
        <time>2013-06-04T11:28:46Z</time>
      </trkpt>
      <trkpt lat="44.89754" lon="0.50337">
        <ele>126.098869</ele>
        <time>2013-06-04T11:28:52Z</time>
      </trkpt>
      <trkpt lat="44.89764" lon="0.50332">
        <ele>126.338692</ele>
        <time>2013-06-04T11:28:57Z</time>
      </trkpt>
      <trkpt lat="44.89773" lon="0.50334">
        <ele>126.551331</ele>
        <time>2013-06-04T11:29:03Z</time>
      </trkpt>
      <trkpt lat="44.89785" lon="0.50342">
        <ele>126.872879</ele>
        <time>2013-06-04T11:29:09Z</time>
      </trkpt>
      <trkpt lat="44.89798" lon="0.50343">
        <ele>127.220306</ele>
        <time>2013-06-04T11:29:15Z</time>
      </trkpt>
      <trkpt lat="44.89813" lon="0.50344">
        <ele>127.617203</ele>
        <time>2013-06-04T11:29:21Z</time>
      </trkpt>
      <trkpt lat="44.89829" lon="0.50345">
        <ele>128.023224</ele>
        <time>2013-06-04T11:29:27Z</time>
      </trkpt>
      <trkpt lat="44.89846" lon="0.50346">
        <ele>127.78717</ele>
        <time>2013-06-04T11:29:33Z</time>
      </trkpt>
      <trkpt lat="44.89852" lon="0.50366">
        <ele>127.668594</ele>
        <time>2013-06-04T11:29:39Z</time>
      </trkpt>
      <trkpt lat="44.8986" lon="0.50395">
        <ele>127.409836</ele>
        <time>2013-06-04T11:29:44Z</time>
      </trkpt>
      <trkpt lat="44.89869" lon="0.50419">
        <ele>126.93573</ele>
        <time>2013-06-04T11:29:50Z</time>
      </trkpt>
      <trkpt lat="44.89879" lon="0.50437">
        <ele>126.900192</ele>
        <time>2013-06-04T11:29:55Z</time>
      </trkpt>
      <trkpt lat="44.89888" lon="0.50453">
        <ele>126.891403</ele>
        <time>2013-06-04T11:30:01Z</time>
      </trkpt>
      <trkpt lat="44.899" lon="0.50463">
        <ele>126.53994</ele>
        <time>2013-06-04T11:30:06Z</time>
      </trkpt>
      <trkpt lat="44.89922" lon="0.50473">
        <ele>125.823189</ele>
        <time>2013-06-04T11:30:12Z</time>
      </trkpt>
      <trkpt lat="44.8995" lon="0.50469">
        <ele>124.590927</ele>
        <time>2013-06-04T11:30:17Z</time>
      </trkpt>
      <trkpt lat="44.89979" lon="0.50468">
        <ele>123.44371</ele>
        <time>2013-06-04T11:30:23Z</time>
      </trkpt>
      <trkpt lat="44.89996" lon="0.50474">
        <ele>122.849342</ele>
        <time>2013-06-04T11:30:28Z</time>
      </trkpt>
      <trkpt lat="44.90015" lon="0.50489">
        <ele>123.118324</ele>
        <time>2013-06-04T11:30:34Z</time>
      </trkpt>
      <trkpt lat="44.90028" lon="0.50498">
        <ele>123.339783</ele>
        <time>2013-06-04T11:30:39Z</time>
      </trkpt>
      <trkpt lat="44.90038" lon="0.50502">
        <ele>123.403961</ele>
        <time>2013-06-04T11:30:44Z</time>
      </trkpt>
      <trkpt lat="44.90049" lon="0.50507">
        <ele>123.391724</ele>
        <time>2013-06-04T11:30:50Z</time>
      </trkpt>
      <trkpt lat="44.90062" lon="0.50515">
        <ele>123.265747</ele>
        <time>2013-06-04T11:30:56Z</time>
      </trkpt>
      <trkpt lat="44.90076" lon="0.50521">
        <ele>123.158852</ele>
        <time>2013-06-04T11:31:01Z</time>
      </trkpt>
      <trkpt lat="44.90091" lon="0.50526">
        <ele>123.368477</ele>
        <time>2013-06-04T11:31:07Z</time>
      </trkpt>
      <trkpt lat="44.90102" lon="0.50527">
        <ele>123.756966</ele>
        <time>2013-06-04T11:31:12Z</time>
      </trkpt>
      <trkpt lat="44.90117" lon="0.50519">
        <ele>124.632812</ele>
        <time>2013-06-04T11:31:17Z</time>
      </trkpt>
      <trkpt lat="44.90129" lon="0.50512">
        <ele>125.292076</ele>
        <time>2013-06-04T11:31:23Z</time>
      </trkpt>
      <trkpt lat="44.90172" lon="0.50498">
        <ele>127.320808</ele>
        <time>2013-06-04T11:31:28Z</time>
      </trkpt>
      <trkpt lat="44.90184" lon="0.50505">
        <ele>127.730003</ele>
        <time>2013-06-04T11:31:34Z</time>
      </trkpt>
      <trkpt lat="44.9018" lon="0.50528">
        <ele>127.15329</ele>
        <time>2013-06-04T11:31:39Z</time>
      </trkpt>
      <trkpt lat="44.90183" lon="0.50545">
        <ele>127.039467</ele>
        <time>2013-06-04T11:31:45Z</time>
      </trkpt>
      <trkpt lat="44.90202" lon="0.50535">
        <ele>128.370026</ele>
        <time>2013-06-04T11:31:51Z</time>
      </trkpt>
      <trkpt lat="44.90213" lon="0.50533">
        <ele>129.082108</ele>
        <time>2013-06-04T11:31:56Z</time>
      </trkpt>
      <trkpt lat="44.90218" lon="0.50536">
        <ele>129.41597</ele>
        <time>2013-06-04T11:32:01Z</time>
      </trkpt>
      <trkpt lat="44.90222" lon="0.50542">
        <ele>129.668457</ele>
        <time>2013-06-04T11:32:26Z</time>
      </trkpt>
      <trkpt lat="44.90241" lon="0.50544">
        <ele>130.939209</ele>
        <time>2013-06-04T11:32:31Z</time>
      </trkpt>
      <trkpt lat="44.90263" lon="0.50545">
        <ele>132.358353</ele>
        <time>2013-06-04T11:32:37Z</time>
      </trkpt>
      <trkpt lat="44.90283" lon="0.50546">
        <ele>133.722275</ele>
        <time>2013-06-04T11:32:43Z</time>
      </trkpt>
      <trkpt lat="44.903" lon="0.50552">
        <ele>134.832458</ele>
        <time>2013-06-04T11:32:48Z</time>
      </trkpt>
      <trkpt lat="44.90317" lon="0.50551">
        <ele>135.914459</ele>
        <time>2013-06-04T11:32:54Z</time>
      </trkpt>
      <trkpt lat="44.9033" lon="0.50549">
        <ele>136.752701</ele>
        <time>2013-06-04T11:33:00Z</time>
      </trkpt>
      <trkpt lat="44.90333" lon="0.50529">
        <ele>136.946838</ele>
        <time>2013-06-04T11:33:06Z</time>
      </trkpt>
      <trkpt lat="44.90333" lon="0.50506">
        <ele>137</ele>
        <time>2013-06-04T11:33:12Z</time>
      </trkpt>
      <trkpt lat="44.90337" lon="0.50489">
        <ele>137.377869</ele>
        <time>2013-06-04T11:33:18Z</time>
      </trkpt>
      <trkpt lat="44.9034" lon="0.50476">
        <ele>137.883316</ele>
        <time>2013-06-04T11:33:23Z</time>
      </trkpt>
      <trkpt lat="44.90346" lon="0.50466">
        <ele>138.62915</ele>
        <time>2013-06-04T11:33:28Z</time>
      </trkpt>
      <trkpt lat="44.90354" lon="0.50453">
        <ele>139.789581</ele>
        <time>2013-06-04T11:33:34Z</time>
      </trkpt>
      <trkpt lat="44.90364" lon="0.50443">
        <ele>141.27951</ele>
        <time>2013-06-04T11:33:40Z</time>
      </trkpt>
      <trkpt lat="44.9037" lon="0.5043">
        <ele>142.646942</ele>
        <time>2013-06-04T11:33:45Z</time>
      </trkpt>
      <trkpt lat="44.90376" lon="0.50427">
        <ele>143.586121</ele>
        <time>2013-06-04T11:33:51Z</time>
      </trkpt>
      <trkpt lat="44.90386" lon="0.50431">
        <ele>144.72113</ele>
        <time>2013-06-04T11:33:56Z</time>
      </trkpt>
      <trkpt lat="44.90398" lon="0.50437">
        <ele>145.6987</ele>
        <time>2013-06-04T11:34:02Z</time>
      </trkpt>
      <trkpt lat="44.90408" lon="0.50444">
        <ele>146.38472</ele>
        <time>2013-06-04T11:34:07Z</time>
      </trkpt>
      <trkpt lat="44.90415" lon="0.50457">
        <ele>145.958313</ele>
        <time>2013-06-04T11:34:13Z</time>
      </trkpt>
      <trkpt lat="44.90429" lon="0.50465">
        <ele>144.833633</ele>
        <time>2013-06-04T11:34:19Z</time>
      </trkpt>
      <trkpt lat="44.90453" lon="0.50459">
        <ele>144.411987</ele>
        <time>2013-06-04T11:34:25Z</time>
      </trkpt>
      <trkpt lat="44.90466" lon="0.5045">
        <ele>144.832947</ele>
        <time>2013-06-04T11:34:30Z</time>
      </trkpt>
      <trkpt lat="44.90483" lon="0.50438">
        <ele>145.32254</ele>
        <time>2013-06-04T11:34:36Z</time>
      </trkpt>
      <trkpt lat="44.90495" lon="0.50429">
        <ele>145.854813</ele>
        <time>2013-06-04T11:34:41Z</time>
      </trkpt>
      <trkpt lat="44.90503" lon="0.50412">
        <ele>147.057861</ele>
        <time>2013-06-04T11:34:46Z</time>
      </trkpt>
      <trkpt lat="44.90515" lon="0.50395">
        <ele>147.343506</ele>
        <time>2013-06-04T11:34:52Z</time>
      </trkpt>
      <trkpt lat="44.90523" lon="0.50381">
        <ele>147.614502</ele>
        <time>2013-06-04T11:34:57Z</time>
      </trkpt>
      <trkpt lat="44.90533" lon="0.50358">
        <ele>148.25</ele>
        <time>2013-06-04T11:35:03Z</time>
      </trkpt>
      <trkpt lat="44.90541" lon="0.50349">
        <ele>148.268799</ele>
        <time>2013-06-04T11:35:09Z</time>
      </trkpt>
      <trkpt lat="44.90547" lon="0.50335">
        <ele>148.677979</ele>
        <time>2013-06-04T11:35:14Z</time>
      </trkpt>
      <trkpt lat="44.90556" lon="0.50321">
        <ele>148.768188</ele>
        <time>2013-06-04T11:35:20Z</time>
      </trkpt>
      <trkpt lat="44.90565" lon="0.50314">
        <ele>148.563904</ele>
        <time>2013-06-04T11:35:25Z</time>
      </trkpt>
      <trkpt lat="44.90587" lon="0.50316">
        <ele>147.388779</ele>
        <time>2013-06-04T11:35:31Z</time>
      </trkpt>
      <trkpt lat="44.90608" lon="0.50321">
        <ele>145.793716</ele>
        <time>2013-06-04T11:35:36Z</time>
      </trkpt>
      <trkpt lat="44.90619" lon="0.5032">
        <ele>145.15799</ele>
        <time>2013-06-04T11:35:42Z</time>
      </trkpt>
      <trkpt lat="44.90633" lon="0.50317">
        <ele>144.411774</ele>
        <time>2013-06-04T11:35:47Z</time>
      </trkpt>
      <trkpt lat="44.90644" lon="0.50315">
        <ele>143.810577</ele>
        <time>2013-06-04T11:35:52Z</time>
      </trkpt>
      <trkpt lat="44.90661" lon="0.50311">
        <ele>142.976822</ele>
        <time>2013-06-04T11:35:58Z</time>
      </trkpt>
      <trkpt lat="44.90678" lon="0.50302">
        <ele>142.865479</ele>
        <time>2013-06-04T11:36:04Z</time>
      </trkpt>
      <trkpt lat="44.90702" lon="0.50295">
        <ele>142.500732</ele>
        <time>2013-06-04T11:36:10Z</time>
      </trkpt>
      <trkpt lat="44.90717" lon="0.50294">
        <ele>142.005249</ele>
        <time>2013-06-04T11:36:16Z</time>
      </trkpt>
      <trkpt lat="44.90724" lon="0.50289">
        <ele>142.126831</ele>
        <time>2013-06-04T11:36:21Z</time>
      </trkpt>
      <trkpt lat="44.90739" lon="0.50283">
        <ele>142.042603</ele>
        <time>2013-06-04T11:36:27Z</time>
      </trkpt>
      <trkpt lat="44.90755" lon="0.50279">
        <ele>142.114578</ele>
        <time>2013-06-04T11:36:33Z</time>
      </trkpt>
      <trkpt lat="44.90769" lon="0.5028">
        <ele>142.63092</ele>
        <time>2013-06-04T11:36:38Z</time>
      </trkpt>
      <trkpt lat="44.90784" lon="0.50282">
        <ele>143.210144</ele>
        <time>2013-06-04T11:36:43Z</time>
      </trkpt>
      <trkpt lat="44.90796" lon="0.50283">
        <ele>143.64389</ele>
        <time>2013-06-04T11:36:48Z</time>
      </trkpt>
      <trkpt lat="44.9081" lon="0.5028">
        <ele>144.441788</ele>
        <time>2013-06-04T11:36:54Z</time>
      </trkpt>
      <trkpt lat="44.90821" lon="0.50281">
        <ele>144.884964</ele>
        <time>2013-06-04T11:36:59Z</time>
      </trkpt>
      <trkpt lat="44.90833" lon="0.50285">
        <ele>145.075272</ele>
        <time>2013-06-04T11:37:04Z</time>
      </trkpt>
      <trkpt lat="44.90844" lon="0.50287">
        <ele>145.651352</ele>
        <time>2013-06-04T11:37:10Z</time>
      </trkpt>
      <trkpt lat="44.90852" lon="0.50287">
        <ele>146.192322</ele>
        <time>2013-06-04T11:37:15Z</time>
      </trkpt>
      <trkpt lat="44.90859" lon="0.50289">
        <ele>146.41893</ele>
        <time>2013-06-04T11:37:21Z</time>
      </trkpt>
      <trkpt lat="44.90869" lon="0.50287">
        <ele>147.265076</ele>
        <time>2013-06-04T11:37:26Z</time>
      </trkpt>
      <trkpt lat="44.90884" lon="0.50282">
        <ele>148.741028</ele>
        <time>2013-06-04T11:37:32Z</time>
      </trkpt>
      <trkpt lat="44.90896" lon="0.50271">
        <ele>150.547516</ele>
        <time>2013-06-04T11:37:37Z</time>
      </trkpt>
      <trkpt lat="44.90904" lon="0.50261">
        <ele>152.057678</ele>
        <time>2013-06-04T11:37:42Z</time>
      </trkpt>
      <trkpt lat="44.90912" lon="0.50258">
        <ele>152.91391</ele>
        <time>2013-06-04T11:37:52Z</time>
      </trkpt>
      <trkpt lat="44.90929" lon="0.50247">
        <ele>154.768188</ele>
        <time>2013-06-04T11:37:58Z</time>
      </trkpt>
      <trkpt lat="44.90937" lon="0.50246">
        <ele>155.293579</ele>
        <time>2013-06-04T11:38:04Z</time>
      </trkpt>
      <trkpt lat="44.90937" lon="0.50237">
        <ele>155.917358</ele>
        <time>2013-06-04T11:38:11Z</time>
      </trkpt>
      <trkpt lat="44.90943" lon="0.50231">
        <ele>156.637085</ele>
        <time>2013-06-04T11:38:26Z</time>
      </trkpt>
      <trkpt lat="44.90946" lon="0.50226">
        <ele>157.147827</ele>
        <time>2013-06-04T11:38:34Z</time>
      </trkpt>
      <trkpt lat="44.9095" lon="0.50215">
        <ele>158.109009</ele>
        <time>2013-06-04T11:38:39Z</time>
      </trkpt>
      <trkpt lat="44.90954" lon="0.50205">
        <ele>159.076294</ele>
        <time>2013-06-04T11:38:45Z</time>
      </trkpt>
      <trkpt lat="44.90954" lon="0.50194">
        <ele>159.805542</ele>
        <time>2013-06-04T11:38:51Z</time>
      </trkpt>
      <trkpt lat="44.90955" lon="0.50182">
        <ele>160.779663</ele>
        <time>2013-06-04T11:38:57Z</time>
      </trkpt>
      <trkpt lat="44.90955" lon="0.50172">
        <ele>161.438721</ele>
        <time>2013-06-04T11:39:02Z</time>
      </trkpt>
      <trkpt lat="44.90956" lon="0.50166">
        <ele>161.897217</ele>
        <time>2013-06-04T11:39:09Z</time>
      </trkpt>
      <trkpt lat="44.90956" lon="0.50158">
        <ele>161.988403</ele>
        <time>2013-06-04T11:39:14Z</time>
      </trkpt>
      <trkpt lat="44.90957" lon="0.5015">
        <ele>162.156677</ele>
        <time>2013-06-04T11:39:19Z</time>
      </trkpt>
      <trkpt lat="44.9096" lon="0.50141">
        <ele>162.345734</ele>
        <time>2013-06-04T11:39:24Z</time>
      </trkpt>
      <trkpt lat="44.90963" lon="0.50135">
        <ele>162.519257</ele>
        <time>2013-06-04T11:39:30Z</time>
      </trkpt>
      <trkpt lat="44.90971" lon="0.50135">
        <ele>162.741974</ele>
        <time>2013-06-04T11:39:35Z</time>
      </trkpt>
      <trkpt lat="44.90982" lon="0.50137">
        <ele>163.077545</ele>
        <time>2013-06-04T11:39:41Z</time>
      </trkpt>
      <trkpt lat="44.90978" lon="0.50131">
        <ele>162.959686</ele>
        <time>2013-06-04T11:39:48Z</time>
      </trkpt>
      <trkpt lat="44.90967" lon="0.50126">
        <ele>162.695587</ele>
        <time>2013-06-04T11:39:54Z</time>
      </trkpt>
      <trkpt lat="44.90957" lon="0.50127">
        <ele>162.443939</ele>
        <time>2013-06-04T11:39:59Z</time>
      </trkpt>
      <trkpt lat="44.90954" lon="0.50137">
        <ele>162.221588</ele>
        <time>2013-06-04T11:40:04Z</time>
      </trkpt>
      <trkpt lat="44.90955" lon="0.50148">
        <ele>162.089661</ele>
        <time>2013-06-04T11:40:09Z</time>
      </trkpt>
      <trkpt lat="44.90956" lon="0.50162">
        <ele>161.966736</ele>
        <time>2013-06-04T11:40:15Z</time>
      </trkpt>
      <trkpt lat="44.90955" lon="0.5017">
        <ele>161.588013</ele>
        <time>2013-06-04T11:40:20Z</time>
      </trkpt>
      <trkpt lat="44.90961" lon="0.50178">
        <ele>161.283081</ele>
        <time>2013-06-04T11:40:26Z</time>
      </trkpt>
      <trkpt lat="44.90964" lon="0.50185">
        <ele>160.926514</ele>
        <time>2013-06-04T11:40:32Z</time>
      </trkpt>
      <trkpt lat="44.90969" lon="0.50184">
        <ele>161.250244</ele>
        <time>2013-06-04T11:40:49Z</time>
      </trkpt>
      <trkpt lat="44.90972" lon="0.5018">
        <ele>161.712769</ele>
        <time>2013-06-04T11:40:56Z</time>
      </trkpt>
      <trkpt lat="44.90968" lon="0.50188">
        <ele>160.927979</ele>
        <time>2013-06-04T11:41:02Z</time>
      </trkpt>
      <trkpt lat="44.90966" lon="0.50182">
        <ele>161.31543</ele>
        <time>2013-06-04T11:42:30Z</time>
      </trkpt>
      <trkpt lat="44.90965" lon="0.50171">
        <ele>162.027832</ele>
        <time>2013-06-04T11:42:36Z</time>
      </trkpt>
      <trkpt lat="44.90965" lon="0.50158">
        <ele>162.40596</ele>
        <time>2013-06-04T11:42:42Z</time>
      </trkpt>
      <trkpt lat="44.90963" lon="0.50145">
        <ele>162.438141</ele>
        <time>2013-06-04T11:42:48Z</time>
      </trkpt>
      <trkpt lat="44.90962" lon="0.50139">
        <ele>162.436523</ele>
        <time>2013-06-04T11:42:53Z</time>
      </trkpt>
      <trkpt lat="44.90966" lon="0.50135">
        <ele>162.594421</ele>
        <time>2013-06-04T11:43:01Z</time>
      </trkpt>
      <trkpt lat="44.90972" lon="0.50139">
        <ele>162.751526</ele>
        <time>2013-06-04T11:43:07Z</time>
      </trkpt>
      <trkpt lat="44.90976" lon="0.50143">
        <ele>162.873032</ele>
        <time>2013-06-04T11:43:12Z</time>
      </trkpt>
      <trkpt lat="44.9098" lon="0.50144">
        <ele>163.038498</ele>
        <time>2013-06-04T11:43:34Z</time>
      </trkpt>
      <trkpt lat="44.90986" lon="0.5014">
        <ele>163.222046</ele>
        <time>2013-06-04T11:44:47Z</time>
      </trkpt>
      <trkpt lat="44.90994" lon="0.50146">
        <ele>163.542542</ele>
        <time>2013-06-04T11:44:52Z</time>
      </trkpt>
      <trkpt lat="44.91007" lon="0.50148">
        <ele>163.925461</ele>
        <time>2013-06-04T11:44:57Z</time>
      </trkpt>
      <trkpt lat="44.91018" lon="0.50148">
        <ele>164.182541</ele>
        <time>2013-06-04T11:45:03Z</time>
      </trkpt>
      <trkpt lat="44.91034" lon="0.50143">
        <ele>164.383987</ele>
        <time>2013-06-04T11:45:09Z</time>
      </trkpt>
      <trkpt lat="44.91052" lon="0.50148">
        <ele>164.957245</ele>
        <time>2013-06-04T11:45:15Z</time>
      </trkpt>
      <trkpt lat="44.91073" lon="0.50155">
        <ele>165.839264</ele>
        <time>2013-06-04T11:45:20Z</time>
      </trkpt>
      <trkpt lat="44.91096" lon="0.50164">
        <ele>166.662018</ele>
        <time>2013-06-04T11:45:25Z</time>
      </trkpt>
      <trkpt lat="44.91123" lon="0.50169">
        <ele>166.449463</ele>
        <time>2013-06-04T11:45:31Z</time>
      </trkpt>
      <trkpt lat="44.91145" lon="0.50174">
        <ele>166.02507</ele>
        <time>2013-06-04T11:45:36Z</time>
      </trkpt>
      <trkpt lat="44.91166" lon="0.50176">
        <ele>165.692596</ele>
        <time>2013-06-04T11:45:41Z</time>
      </trkpt>
      <trkpt lat="44.91188" lon="0.50174">
        <ele>165.96991</ele>
        <time>2013-06-04T11:45:46Z</time>
      </trkpt>
      <trkpt lat="44.91212" lon="0.50176">
        <ele>166.218445</ele>
        <time>2013-06-04T11:45:51Z</time>
      </trkpt>
      <trkpt lat="44.91239" lon="0.50177">
        <ele>166.498962</ele>
        <time>2013-06-04T11:45:57Z</time>
      </trkpt>
      <trkpt lat="44.91259" lon="0.50179">
        <ele>166.821121</ele>
        <time>2013-06-04T11:46:02Z</time>
      </trkpt>
      <trkpt lat="44.91281" lon="0.50182">
        <ele>167.398926</ele>
        <time>2013-06-04T11:46:08Z</time>
      </trkpt>
      <trkpt lat="44.91299" lon="0.50182">
        <ele>167.933411</ele>
        <time>2013-06-04T11:46:13Z</time>
      </trkpt>
      <trkpt lat="44.91313" lon="0.50177">
        <ele>168.417023</ele>
        <time>2013-06-04T11:46:18Z</time>
      </trkpt>
      <trkpt lat="44.91316" lon="0.50156">
        <ele>168.38591</ele>
        <time>2013-06-04T11:46:23Z</time>
      </trkpt>
      <trkpt lat="44.91316" lon="0.50142">
        <ele>168.082108</ele>
        <time>2013-06-04T11:46:55Z</time>
      </trkpt>
      <trkpt lat="44.91322" lon="0.50127">
        <ele>168.050385</ele>
        <time>2013-06-04T11:47:01Z</time>
      </trkpt>
      <trkpt lat="44.91344" lon="0.50112">
        <ele>168.511993</ele>
        <time>2013-06-04T11:47:06Z</time>
      </trkpt>
      <trkpt lat="44.91367" lon="0.50103">
        <ele>168.621582</ele>
        <time>2013-06-04T11:47:12Z</time>
      </trkpt>
      <trkpt lat="44.91382" lon="0.50093">
        <ele>168.393555</ele>
        <time>2013-06-04T11:47:17Z</time>
      </trkpt>
      <trkpt lat="44.9139" lon="0.50076">
        <ele>167.970093</ele>
        <time>2013-06-04T11:47:22Z</time>
      </trkpt>
      <trkpt lat="44.91388" lon="0.5004">
        <ele>167.82164</ele>
        <time>2013-06-04T11:47:27Z</time>
      </trkpt>
      <trkpt lat="44.9139" lon="0.50003">
        <ele>167.697327</ele>
        <time>2013-06-04T11:47:33Z</time>
      </trkpt>
      <trkpt lat="44.91398" lon="0.49965">
        <ele>167.267059</ele>
        <time>2013-06-04T11:47:38Z</time>
      </trkpt>
      <trkpt lat="44.91391" lon="0.49917">
        <ele>166.39447</ele>
        <time>2013-06-04T11:47:44Z</time>
      </trkpt>
      <trkpt lat="44.91368" lon="0.49873">
        <ele>163.921173</ele>
        <time>2013-06-04T11:47:49Z</time>
      </trkpt>
      <trkpt lat="44.91357" lon="0.49838">
        <ele>162.054565</ele>
        <time>2013-06-04T11:47:55Z</time>
      </trkpt>
      <trkpt lat="44.91352" lon="0.49828">
        <ele>161.501801</ele>
        <time>2013-06-04T11:48:00Z</time>
      </trkpt>
      <trkpt lat="44.91356" lon="0.4983">
        <ele>161.713943</ele>
        <time>2013-06-04T11:48:14Z</time>
      </trkpt>
      <trkpt lat="44.91372" lon="0.49835">
        <ele>162.429077</ele>
        <time>2013-06-04T11:48:20Z</time>
      </trkpt>
      <trkpt lat="44.91385" lon="0.49824">
        <ele>162.467133</ele>
        <time>2013-06-04T11:48:26Z</time>
      </trkpt>
      <trkpt lat="44.91402" lon="0.49788">
        <ele>161.458832</ele>
        <time>2013-06-04T11:50:28Z</time>
      </trkpt>
      <trkpt lat="44.91409" lon="0.4978">
        <ele>161.292831</ele>
        <time>2013-06-04T11:50:37Z</time>
      </trkpt>
      <trkpt lat="44.9143" lon="0.49765">
        <ele>159.999374</ele>
        <time>2013-06-04T11:50:43Z</time>
      </trkpt>
      <trkpt lat="44.91448" lon="0.49744">
        <ele>157.785049</ele>
        <time>2013-06-04T11:50:49Z</time>
      </trkpt>
      <trkpt lat="44.91464" lon="0.49728">
        <ele>156.026184</ele>
        <time>2013-06-04T11:50:54Z</time>
      </trkpt>
      <trkpt lat="44.91487" lon="0.49681">
        <ele>152.902298</ele>
        <time>2013-06-04T11:51:00Z</time>
      </trkpt>
      <trkpt lat="44.91511" lon="0.4963">
        <ele>150.001038</ele>
        <time>2013-06-04T11:51:05Z</time>
      </trkpt>
      <trkpt lat="44.91533" lon="0.4956">
        <ele>144.474884</ele>
        <time>2013-06-04T11:51:10Z</time>
      </trkpt>
      <trkpt lat="44.91582" lon="0.49481">
        <ele>135.609283</ele>
        <time>2013-06-04T11:51:16Z</time>
      </trkpt>
      <trkpt lat="44.9161" lon="0.49436">
        <ele>137.74379</ele>
        <time>2013-06-04T11:51:22Z</time>
      </trkpt>
      <trkpt lat="44.9162" lon="0.49418">
        <ele>138.492081</ele>
        <time>2013-06-04T11:51:28Z</time>
      </trkpt>
      <trkpt lat="44.91635" lon="0.49383">
        <ele>138.680984</ele>
        <time>2013-06-04T11:51:33Z</time>
      </trkpt>
      <trkpt lat="44.91651" lon="0.49337">
        <ele>138.474823</ele>
        <time>2013-06-04T11:51:38Z</time>
      </trkpt>
      <trkpt lat="44.91663" lon="0.49307">
        <ele>138.303467</ele>
        <time>2013-06-04T11:51:43Z</time>
      </trkpt>
      <trkpt lat="44.91684" lon="0.49277">
        <ele>137.772293</ele>
        <time>2013-06-04T11:51:49Z</time>
      </trkpt>
      <trkpt lat="44.91698" lon="0.49266">
        <ele>137.569504</ele>
        <time>2013-06-04T11:51:55Z</time>
      </trkpt>
      <trkpt lat="44.91721" lon="0.49248">
        <ele>137.100449</ele>
        <time>2013-06-04T11:52:00Z</time>
      </trkpt>
      <trkpt lat="44.91755" lon="0.49219">
        <ele>134.349152</ele>
        <time>2013-06-04T11:52:06Z</time>
      </trkpt>
      <trkpt lat="44.91801" lon="0.49152">
        <ele>127.71788</ele>
        <time>2013-06-04T11:52:11Z</time>
      </trkpt>
      <trkpt lat="44.91834" lon="0.49118">
        <ele>125.117661</ele>
        <time>2013-06-04T11:52:17Z</time>
      </trkpt>
      <trkpt lat="44.91853" lon="0.491">
        <ele>124.859299</ele>
        <time>2013-06-04T11:52:22Z</time>
      </trkpt>
      <trkpt lat="44.91881" lon="0.49049">
        <ele>123.784149</ele>
        <time>2013-06-04T11:52:28Z</time>
      </trkpt>
      <trkpt lat="44.91907" lon="0.4901">
        <ele>123.094788</ele>
        <time>2013-06-04T11:52:34Z</time>
      </trkpt>
      <trkpt lat="44.91924" lon="0.48988">
        <ele>123.986725</ele>
        <time>2013-06-04T11:52:40Z</time>
      </trkpt>
      <trkpt lat="44.91942" lon="0.48962">
        <ele>126.052246</ele>
        <time>2013-06-04T11:52:46Z</time>
      </trkpt>
      <trkpt lat="44.91955" lon="0.48948">
        <ele>127.32164</ele>
        <time>2013-06-04T11:52:51Z</time>
      </trkpt>
      <trkpt lat="44.91982" lon="0.48904">
        <ele>129.612427</ele>
        <time>2013-06-04T11:52:57Z</time>
      </trkpt>
      <trkpt lat="44.91994" lon="0.48889">
        <ele>130.563568</ele>
        <time>2013-06-04T11:53:03Z</time>
      </trkpt>
      <trkpt lat="44.92016" lon="0.4886">
        <ele>131.431351</ele>
        <time>2013-06-04T11:53:09Z</time>
      </trkpt>
      <trkpt lat="44.92032" lon="0.48843">
        <ele>131.544891</ele>
        <time>2013-06-04T11:53:15Z</time>
      </trkpt>
      <trkpt lat="44.92051" lon="0.48798">
        <ele>131.450058</ele>
        <time>2013-06-04T11:53:20Z</time>
      </trkpt>
      <trkpt lat="44.92059" lon="0.4877">
        <ele>131.477051</ele>
        <time>2013-06-04T11:53:25Z</time>
      </trkpt>
      <trkpt lat="44.9207" lon="0.48736">
        <ele>131.337158</ele>
        <time>2013-06-04T11:53:30Z</time>
      </trkpt>
      <trkpt lat="44.92084" lon="0.48699">
        <ele>130.750336</ele>
        <time>2013-06-04T11:53:36Z</time>
      </trkpt>
      <trkpt lat="44.92096" lon="0.48669">
        <ele>129.31424</ele>
        <time>2013-06-04T11:53:42Z</time>
      </trkpt>
      <trkpt lat="44.9212" lon="0.48604">
        <ele>128.833923</ele>
        <time>2013-06-04T11:53:48Z</time>
      </trkpt>
      <trkpt lat="44.92117" lon="0.48543">
        <ele>130.279541</ele>
        <time>2013-06-04T11:53:54Z</time>
      </trkpt>
      <trkpt lat="44.92124" lon="0.48496">
        <ele>129.712646</ele>
        <time>2013-06-04T11:53:59Z</time>
      </trkpt>
      <trkpt lat="44.9213" lon="0.48448">
        <ele>127.813461</ele>
        <time>2013-06-04T11:54:04Z</time>
      </trkpt>
      <trkpt lat="44.92142" lon="0.48409">
        <ele>126.060669</ele>
        <time>2013-06-04T11:54:09Z</time>
      </trkpt>
      <trkpt lat="44.9216" lon="0.48384">
        <ele>124.804222</ele>
        <time>2013-06-04T11:54:15Z</time>
      </trkpt>
      <trkpt lat="44.92178" lon="0.48347">
        <ele>124.176582</ele>
        <time>2013-06-04T11:54:21Z</time>
      </trkpt>
      <trkpt lat="44.92184" lon="0.4832">
        <ele>123.644455</ele>
        <time>2013-06-04T11:54:26Z</time>
      </trkpt>
      <trkpt lat="44.92204" lon="0.48296">
        <ele>121.377167</ele>
        <time>2013-06-04T11:54:31Z</time>
      </trkpt>
      <trkpt lat="44.92248" lon="0.48294">
        <ele>117.611237</ele>
        <time>2013-06-04T11:54:37Z</time>
      </trkpt>
      <trkpt lat="44.92281" lon="0.48308">
        <ele>115.40274</ele>
        <time>2013-06-04T11:54:43Z</time>
      </trkpt>
      <trkpt lat="44.92313" lon="0.48328">
        <ele>112.61647</ele>
        <time>2013-06-04T11:54:48Z</time>
      </trkpt>
      <trkpt lat="44.92342" lon="0.48344">
        <ele>110.230263</ele>
        <time>2013-06-04T11:54:53Z</time>
      </trkpt>
      <trkpt lat="44.92372" lon="0.48352">
        <ele>108.023727</ele>
        <time>2013-06-04T11:54:59Z</time>
      </trkpt>
      <trkpt lat="44.92416" lon="0.4835">
        <ele>104.845505</ele>
        <time>2013-06-04T11:55:05Z</time>
      </trkpt>
      <trkpt lat="44.92457" lon="0.48327">
        <ele>104.866753</ele>
        <time>2013-06-04T11:55:10Z</time>
      </trkpt>
      <trkpt lat="44.9248" lon="0.48297">
        <ele>103.650826</ele>
        <time>2013-06-04T11:55:15Z</time>
      </trkpt>
      <trkpt lat="44.92504" lon="0.48251">
        <ele>99.327263</ele>
        <time>2013-06-04T11:55:21Z</time>
      </trkpt>
      <trkpt lat="44.92525" lon="0.48236">
        <ele>99.59655</ele>
        <time>2013-06-04T11:55:26Z</time>
      </trkpt>
      <trkpt lat="44.92555" lon="0.48228">
        <ele>100.146698</ele>
        <time>2013-06-04T11:55:32Z</time>
      </trkpt>
      <trkpt lat="44.92585" lon="0.48221">
        <ele>99.971519</ele>
        <time>2013-06-04T11:55:37Z</time>
      </trkpt>
      <trkpt lat="44.92622" lon="0.48214">
        <ele>96.218987</ele>
        <time>2013-06-04T11:55:43Z</time>
      </trkpt>
      <trkpt lat="44.92652" lon="0.48207">
        <ele>92.904793</ele>
        <time>2013-06-04T11:55:48Z</time>
      </trkpt>
      <trkpt lat="44.92705" lon="0.48226">
        <ele>87.871613</ele>
        <time>2013-06-04T11:55:54Z</time>
      </trkpt>
      <trkpt lat="44.92739" lon="0.48271">
        <ele>83.94973</ele>
        <time>2013-06-04T11:56:00Z</time>
      </trkpt>
      <trkpt lat="44.92767" lon="0.48311">
        <ele>82.68203</ele>
        <time>2013-06-04T11:56:05Z</time>
      </trkpt>
      <trkpt lat="44.92792" lon="0.4834">
        <ele>82.572266</ele>
        <time>2013-06-04T11:56:11Z</time>
      </trkpt>
      <trkpt lat="44.92799" lon="0.48347">
        <ele>82.404968</ele>
        <time>2013-06-04T11:56:16Z</time>
      </trkpt>
      <trkpt lat="44.92805" lon="0.48354">
        <ele>82.256165</ele>
        <time>2013-06-04T11:56:22Z</time>
      </trkpt>
      <trkpt lat="44.92811" lon="0.48359">
        <ele>82.114014</ele>
        <time>2013-06-04T11:56:28Z</time>
      </trkpt>
      <trkpt lat="44.92823" lon="0.48383">
        <ele>81.986023</ele>
        <time>2013-06-04T11:56:33Z</time>
      </trkpt>
      <trkpt lat="44.92826" lon="0.48403">
        <ele>82.108398</ele>
        <time>2013-06-04T11:56:39Z</time>
      </trkpt>
      <trkpt lat="44.9283" lon="0.48427">
        <ele>82.409889</ele>
        <time>2013-06-04T11:56:45Z</time>
      </trkpt>
      <trkpt lat="44.92834" lon="0.48451">
        <ele>82.95475</ele>
        <time>2013-06-04T11:56:51Z</time>
      </trkpt>
      <trkpt lat="44.9284" lon="0.48481">
        <ele>84.372688</ele>
        <time>2013-06-04T11:56:57Z</time>
      </trkpt>
      <trkpt lat="44.92844" lon="0.48505">
        <ele>85.308434</ele>
        <time>2013-06-04T11:57:03Z</time>
      </trkpt>
      <trkpt lat="44.92848" lon="0.48527">
        <ele>86.119827</ele>
        <time>2013-06-04T11:57:08Z</time>
      </trkpt>
      <trkpt lat="44.92853" lon="0.48551">
        <ele>86.810272</ele>
        <time>2013-06-04T11:57:14Z</time>
      </trkpt>
      <trkpt lat="44.92858" lon="0.48574">
        <ele>87.225891</ele>
        <time>2013-06-04T11:57:19Z</time>
      </trkpt>
      <trkpt lat="44.92862" lon="0.48591">
        <ele>87.338516</ele>
        <time>2013-06-04T11:57:24Z</time>
      </trkpt>
      <trkpt lat="44.92866" lon="0.48608">
        <ele>87.339813</ele>
        <time>2013-06-04T11:57:30Z</time>
      </trkpt>
      <trkpt lat="44.9287" lon="0.48626">
        <ele>87.271851</ele>
        <time>2013-06-04T11:57:35Z</time>
      </trkpt>
      <trkpt lat="44.92877" lon="0.48645">
        <ele>87.103882</ele>
        <time>2013-06-04T11:57:40Z</time>
      </trkpt>
      <trkpt lat="44.92879" lon="0.48652">
        <ele>87.009888</ele>
        <time>2013-06-04T11:57:56Z</time>
      </trkpt>
      <trkpt lat="44.92874" lon="0.48637">
        <ele>87.195145</ele>
        <time>2013-06-04T11:58:02Z</time>
      </trkpt>
      <trkpt lat="44.92871" lon="0.48628">
        <ele>87.258591</ele>
        <time>2013-06-04T11:58:07Z</time>
      </trkpt>
      <trkpt lat="44.92876" lon="0.48642">
        <ele>87.136124</ele>
        <time>2013-06-04T11:58:12Z</time>
      </trkpt>
      <trkpt lat="44.92883" lon="0.48662">
        <ele>86.853859</ele>
        <time>2013-06-04T11:58:18Z</time>
      </trkpt>
      <trkpt lat="44.92889" lon="0.48677">
        <ele>87.248718</ele>
        <time>2013-06-04T11:58:24Z</time>
      </trkpt>
      <trkpt lat="44.92893" lon="0.48692">
        <ele>87.867393</ele>
        <time>2013-06-04T11:58:30Z</time>
      </trkpt>
      <trkpt lat="44.92896" lon="0.48704">
        <ele>88.309853</ele>
        <time>2013-06-04T11:58:35Z</time>
      </trkpt>
      <trkpt lat="44.92899" lon="0.48721">
        <ele>88.8479</ele>
        <time>2013-06-04T11:58:41Z</time>
      </trkpt>
      <trkpt lat="44.92901" lon="0.48732">
        <ele>89.131256</ele>
        <time>2013-06-04T11:58:46Z</time>
      </trkpt>
      <trkpt lat="44.92902" lon="0.48745">
        <ele>89.530838</ele>
        <time>2013-06-04T11:58:52Z</time>
      </trkpt>
      <trkpt lat="44.92903" lon="0.48756">
        <ele>89.9021</ele>
        <time>2013-06-04T11:58:58Z</time>
      </trkpt>
      <trkpt lat="44.92904" lon="0.4877">
        <ele>90.467041</ele>
        <time>2013-06-04T11:59:03Z</time>
      </trkpt>
      <trkpt lat="44.92904" lon="0.48784">
        <ele>91.097412</ele>
        <time>2013-06-04T11:59:09Z</time>
      </trkpt>
      <trkpt lat="44.92904" lon="0.48792">
        <ele>91.474121</ele>
        <time>2013-06-04T11:59:50Z</time>
      </trkpt>
      <trkpt lat="44.92905" lon="0.48798">
        <ele>91.776855</ele>
        <time>2013-06-04T12:00:36Z</time>
      </trkpt>
      <trkpt lat="44.92905" lon="0.48806">
        <ele>92.142822</ele>
        <time>2013-06-04T12:00:44Z</time>
      </trkpt>
      <trkpt lat="44.92905" lon="0.48812">
        <ele>92.451416</ele>
        <time>2013-06-04T12:00:56Z</time>
      </trkpt>
      <trkpt lat="44.92915" lon="0.48813">
        <ele>91.207764</ele>
        <time>2013-06-04T12:01:01Z</time>
      </trkpt>
      <trkpt lat="44.92929" lon="0.48813">
        <ele>90.280983</ele>
        <time>2013-06-04T12:01:06Z</time>
      </trkpt>
      <trkpt lat="44.92942" lon="0.48813">
        <ele>89.434875</ele>
        <time>2013-06-04T12:01:11Z</time>
      </trkpt>
      <trkpt lat="44.92947" lon="0.48819">
        <ele>89.298477</ele>
        <time>2013-06-04T12:01:42Z</time>
      </trkpt>
      <trkpt lat="44.92963" lon="0.4882">
        <ele>88.251411</ele>
        <time>2013-06-04T12:01:51Z</time>
      </trkpt>
      <trkpt lat="44.92965" lon="0.48826">
        <ele>88.310043</ele>
        <time>2013-06-04T12:02:12Z</time>
      </trkpt>
      <trkpt lat="44.92973" lon="0.48822">
        <ele>87.666588</ele>
        <time>2013-06-04T12:02:47Z</time>
      </trkpt>
      <trkpt lat="44.92977" lon="0.48827">
        <ele>87.539909</ele>
        <time>2013-06-04T12:03:21Z</time>
      </trkpt>
      <trkpt lat="44.92982" lon="0.48829">
        <ele>87.187668</ele>
        <time>2013-06-04T12:03:26Z</time>
      </trkpt>
      <trkpt lat="44.92987" lon="0.48839">
        <ele>87.4048</ele>
        <time>2013-06-04T12:03:42Z</time>
      </trkpt>
      <trkpt lat="44.92993" lon="0.48833">
        <ele>86.46804</ele>
        <time>2013-06-04T12:03:48Z</time>
      </trkpt>
      <trkpt lat="44.93002" lon="0.48811">
        <ele>85.914909</ele>
        <time>2013-06-04T12:03:53Z</time>
      </trkpt>
      <trkpt lat="44.93013" lon="0.48793">
        <ele>86.437904</ele>
        <time>2013-06-04T12:03:59Z</time>
      </trkpt>
      <trkpt lat="44.93021" lon="0.48777">
        <ele>86.766266</ele>
        <time>2013-06-04T12:04:05Z</time>
      </trkpt>
      <trkpt lat="44.93027" lon="0.48766">
        <ele>86.949707</ele>
        <time>2013-06-04T12:04:13Z</time>
      </trkpt>
      <trkpt lat="44.93033" lon="0.48762">
        <ele>87.229614</ele>
        <time>2013-06-04T12:04:21Z</time>
      </trkpt>
      <trkpt lat="44.93046" lon="0.48748">
        <ele>87.96727</ele>
        <time>2013-06-04T12:04:27Z</time>
      </trkpt>
      <trkpt lat="44.93059" lon="0.48729">
        <ele>91.274277</ele>
        <time>2013-06-04T12:04:33Z</time>
      </trkpt>
      <trkpt lat="44.93067" lon="0.48729">
        <ele>91.955894</ele>
        <time>2013-06-04T12:04:38Z</time>
      </trkpt>
      <trkpt lat="44.93081" lon="0.48732">
        <ele>92.618462</ele>
        <time>2013-06-04T12:04:44Z</time>
      </trkpt>
      <trkpt lat="44.93092" lon="0.48741">
        <ele>92.601662</ele>
        <time>2013-06-04T12:04:50Z</time>
      </trkpt>
      <trkpt lat="44.93106" lon="0.48727">
        <ele>96.328506</ele>
        <time>2013-06-04T12:04:56Z</time>
      </trkpt>
      <trkpt lat="44.93113" lon="0.48721">
        <ele>98.005348</ele>
        <time>2013-06-04T12:05:02Z</time>
      </trkpt>
      <trkpt lat="44.93118" lon="0.48721">
        <ele>98.558167</ele>
        <time>2013-06-04T12:05:31Z</time>
      </trkpt>
      <trkpt lat="44.9313" lon="0.48713">
        <ele>100.879547</ele>
        <time>2013-06-04T12:05:36Z</time>
      </trkpt>
      <trkpt lat="44.93143" lon="0.4871">
        <ele>102.774933</ele>
        <time>2013-06-04T12:05:41Z</time>
      </trkpt>
      <trkpt lat="44.93152" lon="0.48714">
        <ele>103.259132</ele>
        <time>2013-06-04T12:05:47Z</time>
      </trkpt>
      <trkpt lat="44.93159" lon="0.48717">
        <ele>103.640488</ele>
        <time>2013-06-04T12:05:52Z</time>
      </trkpt>
      <trkpt lat="44.9317" lon="0.48718">
        <ele>104.919968</ele>
        <time>2013-06-04T12:05:58Z</time>
      </trkpt>
      <trkpt lat="44.93181" lon="0.48715">
        <ele>106.678253</ele>
        <time>2013-06-04T12:06:03Z</time>
      </trkpt>
      <trkpt lat="44.9319" lon="0.48709">
        <ele>108.375938</ele>
        <time>2013-06-04T12:06:09Z</time>
      </trkpt>
      <trkpt lat="44.93197" lon="0.48699">
        <ele>110.132263</ele>
        <time>2013-06-04T12:06:15Z</time>
      </trkpt>
      <trkpt lat="44.93204" lon="0.48691">
        <ele>111.597054</ele>
        <time>2013-06-04T12:06:26Z</time>
      </trkpt>
      <trkpt lat="44.93209" lon="0.48674">
        <ele>113.454865</ele>
        <time>2013-06-04T12:06:31Z</time>
      </trkpt>
      <trkpt lat="44.93217" lon="0.48667">
        <ele>114.878456</ele>
        <time>2013-06-04T12:06:42Z</time>
      </trkpt>
      <trkpt lat="44.93226" lon="0.48658">
        <ele>116.094116</ele>
        <time>2013-06-04T12:06:48Z</time>
      </trkpt>
      <trkpt lat="44.93235" lon="0.48646">
        <ele>117.542923</ele>
        <time>2013-06-04T12:06:54Z</time>
      </trkpt>
      <trkpt lat="44.93242" lon="0.48639">
        <ele>118.419128</ele>
        <time>2013-06-04T12:07:00Z</time>
      </trkpt>
      <trkpt lat="44.93251" lon="0.4863">
        <ele>119.392326</ele>
        <time>2013-06-04T12:07:06Z</time>
      </trkpt>
      <trkpt lat="44.93259" lon="0.48614">
        <ele>120.270866</ele>
        <time>2013-06-04T12:07:12Z</time>
      </trkpt>
      <trkpt lat="44.93265" lon="0.48604">
        <ele>120.862762</ele>
        <time>2013-06-04T12:07:17Z</time>
      </trkpt>
      <trkpt lat="44.93277" lon="0.48579">
        <ele>122.061821</ele>
        <time>2013-06-04T12:07:23Z</time>
      </trkpt>
      <trkpt lat="44.93281" lon="0.48554">
        <ele>122.789108</ele>
        <time>2013-06-04T12:07:29Z</time>
      </trkpt>
      <trkpt lat="44.93283" lon="0.48533">
        <ele>123.286606</ele>
        <time>2013-06-04T12:07:35Z</time>
      </trkpt>
      <trkpt lat="44.93286" lon="0.48519">
        <ele>123.617531</ele>
        <time>2013-06-04T12:07:40Z</time>
      </trkpt>
      <trkpt lat="44.93292" lon="0.48504">
        <ele>123.937119</ele>
        <time>2013-06-04T12:07:46Z</time>
      </trkpt>
      <trkpt lat="44.93299" lon="0.48484">
        <ele>123.482315</ele>
        <time>2013-06-04T12:07:51Z</time>
      </trkpt>
      <trkpt lat="44.93305" lon="0.48468">
        <ele>122.841782</ele>
        <time>2013-06-04T12:07:57Z</time>
      </trkpt>
      <trkpt lat="44.93304" lon="0.48474">
        <ele>123.076782</ele>
        <time>2013-06-04T12:08:04Z</time>
      </trkpt>
    </trkseg>
  </trk>
</gpx>